Erda, Utah
Current Conditions -  °F | °C
As of 10:53 PM on Tuesday 21 Oct 2014 (Local Time) from KSLC Reporting Station
Scattered Clouds Scattered Clouds  
Wind Chill:   Ceiling: Unl
Heat Index:   Visibility: 10mi
Dew Point:   Wind: 8mph
Humidity: 61%   Direction: 330°NNW
Pressure: 30.07"   Gusts: NA
Location:  40.5393°N, 112.353°W
Report Text: KSLC 220453Z 33007KT 10SM FEW095 SCT170 09/02 A3007 RMK AO2 SLP156 T00940022
Loading
Personal Weather Stations






























Interactive Weather Map
Tropical Storm Tracking
New forecast layout! Learn more

10-Day Weather Forecast

Advertisements
Track Severe Weather on mobile